createdAt,value
2022-08-05T00:01:28.505Z,19.80
2022-08-05T00:03:57.039Z,19.70
2022-08-05T00:06:32.268Z,19.70
2022-08-05T00:09:00.938Z,19.70
2022-08-05T00:11:30.636Z,19.70
2022-08-05T00:14:13.038Z,19.60
2022-08-05T00:16:52.584Z,19.60
2022-08-05T00:19:22.261Z,19.40
2022-08-05T00:21:49.825Z,19.40
2022-08-05T00:24:24.119Z,19.40
2022-08-05T00:26:53.266Z,19.20
2022-08-05T00:29:22.598Z,19.20
2022-08-05T00:32:11.120Z,19.20
2022-08-05T00:35:05.558Z,19.20
2022-08-05T00:37:50.708Z,19.30
2022-08-05T00:40:28.325Z,19.20
2022-08-05T00:43:01.014Z,19.20
2022-08-05T00:45:43.083Z,19.10
2022-08-05T00:48:31.232Z,19.10
2022-08-05T00:50:58.406Z,19.10
2022-08-05T00:53:44.941Z,19.10
2022-08-05T00:56:12.989Z,19.10
2022-08-05T00:58:45.129Z,19.00
2022-08-05T01:01:12.886Z,19.00
2022-08-05T01:03:40.246Z,19.00
2022-08-05T01:06:14.134Z,18.90
2022-08-05T01:08:44.242Z,18.90
2022-08-05T01:11:33.327Z,18.90
2022-08-05T01:14:15.306Z,18.80
2022-08-05T01:16:42.522Z,18.80
2022-08-05T01:19:46.143Z,18.70
2022-08-05T01:22:38.106Z,18.50
2022-08-05T01:25:24.700Z,18.20
2022-08-05T01:28:08.748Z,18.20
2022-08-05T01:30:39.813Z,18.10
2022-08-05T01:33:21.766Z,18.10
2022-08-05T01:35:55.445Z,18.00
2022-08-05T01:38:27.468Z,17.90
2022-08-05T01:41:02.448Z,17.80
2022-08-05T01:43:30.580Z,17.90
2022-08-05T01:45:58.364Z,17.90
2022-08-05T01:48:36.751Z,18.00
2022-08-05T01:51:12.537Z,18.00
2022-08-05T01:53:57.483Z,17.90
2022-08-05T01:58:12.870Z,18.00
2022-08-05T01:59:20.192Z,18.00
2022-08-05T02:01:49.626Z,18.00
2022-08-05T02:04:20.109Z,17.90
2022-08-05T02:06:48.175Z,17.90
2022-08-05T02:09:16.443Z,17.90
2022-08-05T02:12:12.990Z,17.90
2022-08-05T02:14:43.227Z,17.80
2022-08-05T02:18:15.201Z,17.80
2022-08-05T02:20:20.644Z,17.80
2022-08-05T02:22:54.832Z,17.90
2022-08-05T02:25:32.973Z,17.90
2022-08-05T02:28:02.500Z,17.90
2022-08-05T02:30:54.328Z,17.80
2022-08-05T02:33:38.487Z,17.80
2022-08-05T02:36:13.740Z,17.70
2022-08-05T02:38:52.842Z,17.70
2022-08-05T02:41:22.663Z,17.70
2022-08-05T02:44:06.404Z,17.70
2022-08-05T02:46:53.558Z,17.70
2022-08-05T02:49:41.782Z,17.70
2022-08-05T02:52:26.028Z,17.70
2022-08-05T02:55:01.900Z,17.70
2022-08-05T02:58:09.941Z,17.80
2022-08-05T03:00:20.267Z,17.80
2022-08-05T03:02:48.642Z,17.80
2022-08-05T03:05:16.008Z,17.90
2022-08-05T03:08:00.670Z,17.90
2022-08-05T03:10:31.893Z,17.90
2022-08-05T03:15:27.687Z,17.90
2022-08-05T03:17:59.387Z,17.90
2022-08-05T03:20:26.930Z,17.80
2022-08-05T03:22:57.717Z,17.80
2022-08-05T03:25:32.808Z,17.70
2022-08-05T03:28:14.341Z,17.70
2022-08-05T03:30:46.359Z,17.60
2022-08-05T03:33:14.233Z,17.60
2022-08-05T03:35:42.180Z,17.60
2022-08-05T03:38:14.280Z,17.60
2022-08-05T03:40:45.379Z,17.60
2022-08-05T03:43:58.688Z,17.50
2022-08-05T03:46:03.142Z,17.60
2022-08-05T03:48:30.774Z,17.60
2022-08-05T03:52:50.418Z,17.60
2022-08-05T03:55:50.559Z,17.60
2022-08-05T03:57:41.521Z,17.70
2022-08-05T04:00:16.284Z,17.60
2022-08-05T04:02:58.056Z,17.60
2022-08-05T04:05:33.312Z,17.60
2022-08-05T04:08:29.660Z,17.50
2022-08-05T04:10:58.523Z,17.60
2022-08-05T04:13:27.835Z,17.60
2022-08-05T04:16:14.426Z,17.50
2022-08-05T04:18:41.408Z,17.60
2022-08-05T04:21:11.074Z,17.60
2022-08-05T04:24:05.828Z,17.50
2022-08-05T04:26:26.031Z,17.50
2022-08-05T04:28:59.757Z,17.60
2022-08-05T04:31:33.945Z,17.60
2022-08-05T04:34:18.311Z,17.60
2022-08-05T04:36:52.747Z,17.70
2022-08-05T04:39:20.949Z,17.60
2022-08-05T04:41:48.895Z,17.60
2022-08-05T04:44:29.609Z,17.60
2022-08-05T04:47:09.678Z,17.50
2022-08-05T04:50:01.936Z,17.50
2022-08-05T04:52:28.398Z,17.50
2022-08-05T04:54:57.337Z,17.40
2022-08-05T04:57:29.134Z,17.40
2022-08-05T04:59:58.561Z,17.40
2022-08-05T05:02:36.497Z,17.40
2022-08-05T05:05:26.185Z,17.50
2022-08-05T05:07:56.452Z,17.40
2022-08-05T05:10:29.979Z,17.40
2022-08-05T05:12:57.645Z,17.40
2022-08-05T05:15:57.663Z,17.40
2022-08-05T05:18:15.076Z,17.30
2022-08-05T05:20:55.366Z,17.30
2022-08-05T05:23:22.204Z,17.40
2022-08-05T05:25:49.028Z,17.40
2022-08-05T05:28:15.974Z,17.40
2022-08-05T05:30:42.849Z,17.30
2022-08-05T05:33:17.548Z,17.20
2022-08-05T05:35:46.686Z,17.30
2022-08-05T05:38:14.840Z,17.40
2022-08-05T05:40:51.877Z,17.30
2022-08-05T05:43:27.977Z,17.30
2022-08-05T05:46:12.177Z,17.20
2022-08-05T05:48:43.906Z,17.20
2022-08-05T05:51:15.691Z,17.30
2022-08-05T05:53:54.334Z,17.20
2022-08-05T05:56:32.486Z,17.20
2022-08-05T05:59:03.275Z,17.30
2022-08-05T06:01:37.688Z,17.20
2022-08-05T06:04:11.679Z,17.10
2022-08-05T06:06:47.608Z,17.20
2022-08-05T06:09:24.753Z,17.20
2022-08-05T06:12:01.081Z,17.20
2022-08-05T06:14:31.731Z,17.20
2022-08-05T06:16:59.658Z,17.20
2022-08-05T06:19:35.411Z,17.10
2022-08-05T06:22:04.042Z,17.10
2022-08-05T06:24:32.060Z,17.10
2022-08-05T06:26:58.893Z,17.10
2022-08-05T06:29:49.348Z,17.00
2022-08-05T06:32:25.173Z,17.00
2022-08-05T06:34:56.268Z,17.00
2022-08-05T06:37:56.037Z,16.90
2022-08-05T06:40:18.399Z,16.90
2022-08-05T06:42:51.527Z,16.90
2022-08-05T06:45:21.108Z,16.90
2022-08-05T06:48:36.080Z,17.00
2022-08-05T06:50:52.558Z,17.20
2022-08-05T06:53:22.410Z,17.20
2022-08-05T06:55:54.407Z,17.20
2022-08-05T06:58:35.483Z,17.30
2022-08-05T07:01:05.501Z,17.30
2022-08-05T07:03:33.523Z,17.40
2022-08-05T07:06:05.766Z,17.30
2022-08-05T07:08:47.598Z,17.40
2022-08-05T07:11:22.379Z,17.40
2022-08-05T07:14:20.780Z,17.60
2022-08-05T07:17:58.595Z,17.60
2022-08-05T07:20:31.343Z,17.70
2022-08-05T07:22:35.144Z,17.80
2022-08-05T07:25:22.832Z,17.90
2022-08-05T07:27:58.295Z,18.00
2022-08-05T07:30:32.737Z,18.00
2022-08-05T07:33:01.898Z,17.90
2022-08-05T07:36:02.309Z,17.90
2022-08-05T07:38:26.310Z,17.70
2022-08-05T07:41:04.464Z,17.70
2022-08-05T07:43:47.718Z,17.70
2022-08-05T07:46:24.513Z,17.70
2022-08-05T07:49:04.338Z,17.70
2022-08-05T07:51:40.806Z,17.70
2022-08-05T07:54:15.437Z,17.80
2022-08-05T07:57:14.657Z,17.80
2022-08-05T07:59:38.797Z,17.70
2022-08-05T08:02:17.070Z,17.90
2022-08-05T08:04:48.756Z,18.10
2022-08-05T08:07:17.880Z,18.30
2022-08-05T08:09:46.330Z,18.30
2022-08-05T08:12:35.521Z,18.30
2022-08-05T08:15:03.549Z,18.10
2022-08-05T08:17:32.449Z,17.90
2022-08-05T08:20:22.604Z,17.80
2022-08-05T08:22:52.768Z,17.70
2022-08-05T08:25:27.101Z,17.70
2022-08-05T08:28:06.915Z,17.80
2022-08-05T08:30:48.000Z,17.90
2022-08-05T08:33:16.880Z,18.20
2022-08-05T08:35:52.806Z,18.20
2022-08-05T08:38:35.199Z,18.30
2022-08-05T08:41:09.816Z,18.40
2022-08-05T08:45:22.764Z,18.30
2022-08-05T08:46:29.131Z,18.30
2022-08-05T08:49:07.964Z,18.20
2022-08-05T08:52:03.507Z,18.40
2022-08-05T08:54:36.414Z,18.50
2022-08-05T08:57:11.389Z,18.80
2022-08-05T08:59:41.894Z,19.00
2022-08-05T09:02:14.794Z,19.10
2022-08-05T09:04:57.907Z,19.00
2022-08-05T09:07:39.788Z,19.30
2022-08-05T09:10:19.683Z,19.30
2022-08-05T09:12:51.112Z,19.20
2022-08-05T09:15:20.379Z,19.00
2022-08-05T09:17:49.505Z,18.90
2022-08-05T09:20:36.382Z,18.60
2022-08-05T09:23:19.191Z,18.30
2022-08-05T09:26:03.018Z,18.00
2022-08-05T09:28:35.047Z,17.70
2022-08-05T09:31:22.480Z,17.40
2022-08-05T09:33:59.795Z,17.10
2022-08-05T09:36:55.589Z,17.10
2022-08-05T09:39:39.157Z,16.90
2022-08-05T09:42:23.720Z,16.80
2022-08-05T09:44:56.181Z,16.70
2022-08-05T09:47:36.383Z,16.90
2022-08-05T09:50:37.745Z,16.90
2022-08-05T09:53:05.770Z,16.90
2022-08-05T09:55:56.198Z,17.00
2022-08-05T09:58:23.362Z,17.10
2022-08-05T10:00:58.323Z,17.10
2022-08-05T10:03:26.267Z,17.20
2022-08-05T10:06:15.505Z,17.30
2022-08-05T10:08:43.197Z,17.20
2022-08-05T10:11:20.957Z,17.30
2022-08-05T10:13:49.421Z,17.30
2022-08-05T10:16:41.685Z,17.40
2022-08-05T10:19:23.487Z,17.40
2022-08-05T10:22:09.102Z,17.50
2022-08-05T10:24:42.722Z,17.40
2022-08-05T10:27:16.580Z,17.50
2022-08-05T10:30:41.897Z,17.40
2022-08-05T10:32:59.988Z,17.40
2022-08-05T10:35:19.366Z,17.20
2022-08-05T10:37:47.528Z,17.20
2022-08-05T10:40:31.855Z,17.10
2022-08-05T10:43:06.284Z,17.00
2022-08-05T10:45:40.030Z,16.90
2022-08-05T10:48:56.886Z,17.20
2022-08-05T10:51:29.302Z,17.30
2022-08-05T10:54:23.052Z,17.20
2022-08-05T10:56:53.101Z,17.20
2022-08-05T11:00:03.391Z,17.10
2022-08-05T11:02:38.140Z,17.00
2022-08-05T11:05:09.469Z,17.10
2022-08-05T11:08:02.863Z,16.90
2022-08-05T11:10:36.967Z,16.90
2022-08-05T11:13:05.576Z,16.90
2022-08-05T11:16:00.099Z,16.90
2022-08-05T11:18:32.414Z,17.10
2022-08-05T11:21:02.052Z,17.20
2022-08-05T11:24:05.470Z,17.40
2022-08-05T11:26:37.957Z,17.50
2022-08-05T11:29:12.605Z,17.40
2022-08-05T11:31:54.212Z,17.40
2022-08-05T11:34:47.564Z,17.20
2022-08-05T11:38:29.051Z,17.10
2022-08-05T11:41:15.486Z,17.00
2022-08-05T11:44:06.504Z,17.10
2022-08-05T11:47:10.195Z,17.20
2022-08-05T11:49:34.037Z,17.40
2022-08-05T11:52:01.985Z,17.50
2022-08-05T11:54:40.652Z,17.50
2022-08-05T11:57:24.312Z,17.80
2022-08-05T11:59:52.632Z,18.00
2022-08-05T12:02:30.105Z,18.10
2022-08-05T12:05:06.746Z,18.30
2022-08-05T12:08:08.337Z,18.30
2022-08-05T12:10:39.045Z,18.40
2022-08-05T12:13:15.563Z,18.50
2022-08-05T12:15:45.366Z,18.70
2022-08-05T12:18:30.924Z,18.90
2022-08-05T12:21:18.594Z,19.10
2022-08-05T12:24:04.645Z,19.10
2022-08-05T12:26:44.353Z,19.60
2022-08-05T12:29:17.867Z,20.00
2022-08-05T12:31:53.528Z,20.40
2022-08-05T12:34:26.686Z,21.00
2022-08-05T12:36:55.051Z,21.20
2022-08-05T12:39:27.907Z,21.20
2022-08-05T12:41:59.663Z,21.10
2022-08-05T12:44:33.151Z,21.20
2022-08-05T12:47:01.636Z,21.00
2022-08-05T12:50:04.529Z,20.90
2022-08-05T12:52:32.316Z,20.80
2022-08-05T12:55:25.468Z,20.40
2022-08-05T12:58:50.287Z,20.60
2022-08-05T13:02:02.133Z,20.50
2022-08-05T13:03:41.787Z,20.50
2022-08-05T13:06:16.858Z,20.90
2022-08-05T13:08:52.499Z,21.10
2022-08-05T13:12:01.569Z,21.50
2022-08-05T13:14:19.451Z,21.40
2022-08-05T13:16:47.963Z,21.70
2022-08-05T13:19:16.146Z,21.30
2022-08-05T13:21:47.923Z,21.40
2022-08-05T13:24:51.251Z,21.60
2022-08-05T13:27:03.806Z,21.40
2022-08-05T13:29:37.713Z,21.00
2022-08-05T13:32:05.563Z,21.10
2022-08-05T13:34:33.043Z,21.70
2022-08-05T13:37:00.534Z,21.80
2022-08-05T13:40:16.617Z,22.20
2022-08-05T13:42:15.247Z,22.30
2022-08-05T13:44:45.677Z,22.20
2022-08-05T13:47:35.200Z,21.90
2022-08-05T13:50:04.752Z,22.30
2022-08-05T13:52:35.530Z,22.80
2022-08-05T13:55:08.030Z,21.90
2022-08-05T13:57:51.135Z,22.20
2022-08-05T14:00:27.241Z,21.80
2022-08-05T14:02:58.072Z,21.80
2022-08-05T14:05:48.262Z,21.60
2022-08-05T14:08:21.413Z,21.60
2022-08-05T14:11:03.078Z,21.20
2022-08-05T14:13:34.956Z,21.30
2022-08-05T14:16:04.403Z,21.30
2022-08-05T14:18:36.268Z,20.90
2022-08-05T14:22:06.733Z,20.80
2022-08-05T14:23:51.677Z,20.90
2022-08-05T14:26:35.495Z,20.60
2022-08-05T14:29:06.017Z,20.80
2022-08-05T14:32:02.649Z,21.10
2022-08-05T14:34:35.657Z,21.40
2022-08-05T14:37:04.414Z,21.90
2022-08-05T14:39:49.792Z,23.10
2022-08-05T14:42:21.331Z,24.40
2022-08-05T14:44:49.172Z,25.30
2022-08-05T14:47:16.390Z,25.90
2022-08-05T14:50:17.559Z,25.00
2022-08-05T14:52:53.097Z,25.00
2022-08-05T14:55:20.629Z,25.60
2022-08-05T14:57:54.380Z,25.70
2022-08-05T15:00:25.258Z,25.80
2022-08-05T15:02:55.358Z,25.80
2022-08-05T15:05:22.398Z,25.50
2022-08-05T15:08:04.579Z,24.80
2022-08-05T15:10:41.412Z,24.10
2022-08-05T15:13:09.978Z,23.60
2022-08-05T15:15:55.629Z,23.10
2022-08-05T15:18:23.469Z,23.70
2022-08-05T15:20:51.001Z,24.10
2022-08-05T15:23:18.145Z,24.60
2022-08-05T15:25:52.581Z,25.00
2022-08-05T15:28:27.802Z,24.40
2022-08-05T15:30:56.223Z,24.40
2022-08-05T15:34:05.387Z,24.20
2022-08-05T15:36:17.565Z,24.20
2022-08-05T15:41:04.792Z,24.20
2022-08-05T15:41:55.721Z,23.40
2022-08-05T15:44:26.151Z,23.10
2022-08-05T15:46:54.641Z,23.20
2022-08-05T15:49:39.923Z,22.80
2022-08-05T15:52:13.790Z,22.40
2022-08-05T15:54:43.332Z,22.30
2022-08-05T15:57:10.127Z,22.30
2022-08-05T15:59:38.274Z,22.40
2022-08-05T16:02:09.596Z,21.90
2022-08-05T16:04:42.237Z,22.00
2022-08-05T16:07:10.803Z,23.00
2022-08-05T16:09:38.165Z,23.70
2022-08-05T16:12:09.240Z,23.10
2022-08-05T16:14:38.276Z,22.80
2022-08-05T16:17:05.230Z,22.40
2022-08-05T16:20:04.251Z,22.20
2022-08-05T16:22:24.103Z,22.90
2022-08-05T16:24:52.249Z,24.00
2022-08-05T16:27:32.010Z,24.30
2022-08-05T16:30:08.347Z,24.20
2022-08-05T16:32:50.259Z,24.00
2022-08-05T16:35:17.164Z,24.40
2022-08-05T16:38:02.655Z,23.70
2022-08-05T16:40:32.246Z,24.30
2022-08-05T16:42:59.933Z,24.10
2022-08-05T16:46:03.933Z,24.30
2022-08-05T16:48:25.840Z,24.10
2022-08-05T16:51:00.540Z,23.60
2022-08-05T16:53:32.462Z,23.90
2022-08-05T16:56:14.129Z,24.40
2022-08-05T16:58:41.067Z,24.30
2022-08-05T17:01:10.379Z,23.90
2022-08-05T17:03:37.769Z,23.80
2022-08-05T17:06:06.670Z,23.70
2022-08-05T17:08:52.247Z,23.60
2022-08-05T17:11:25.723Z,23.80
2022-08-05T17:14:05.658Z,23.30
2022-08-05T17:16:38.386Z,23.20
2022-08-05T17:19:09.591Z,23.10
2022-08-05T17:21:39.426Z,23.00
2022-08-05T17:24:30.101Z,23.00
2022-08-05T17:26:56.966Z,22.80
2022-08-05T17:29:33.607Z,22.00
2022-08-05T17:32:16.810Z,22.20
2022-08-05T17:34:45.082Z,22.40
2022-08-05T17:37:41.826Z,22.40
2022-08-05T17:40:12.815Z,22.50
2022-08-05T17:42:43.059Z,22.60
2022-08-05T17:45:24.937Z,22.80
2022-08-05T17:47:55.388Z,22.60
2022-08-05T17:50:28.315Z,22.50
2022-08-05T17:53:00.471Z,22.40
2022-08-05T17:55:34.683Z,22.40
2022-08-05T17:58:14.381Z,22.10
2022-08-05T18:00:47.612Z,22.00
2022-08-05T18:03:48.375Z,21.80
2022-08-05T18:06:14.900Z,21.50
2022-08-05T18:08:52.160Z,21.40
2022-08-05T18:11:24.165Z,21.40
2022-08-05T18:14:04.551Z,21.40
2022-08-05T18:16:34.977Z,21.30
2022-08-05T18:19:17.106Z,21.30
2022-08-05T18:22:08.265Z,20.80
2022-08-05T18:24:31.983Z,20.60
2022-08-05T18:26:59.661Z,20.40
2022-08-05T18:29:40.073Z,20.10
2022-08-05T18:32:12.777Z,19.90
2022-08-05T18:34:54.905Z,19.60
2022-08-05T18:37:34.119Z,19.40
2022-08-05T18:40:33.802Z,19.20
2022-08-05T18:42:54.755Z,19.00
2022-08-05T18:45:21.921Z,18.80
2022-08-05T18:47:56.699Z,18.50
2022-08-05T18:50:45.168Z,18.20
2022-08-05T18:53:20.661Z,17.80
2022-08-05T18:55:49.911Z,17.60
2022-08-05T18:58:18.580Z,17.40
2022-08-05T19:00:54.673Z,17.30
2022-08-05T19:03:52.694Z,17.10
2022-08-05T19:06:19.237Z,16.90
2022-08-05T19:08:49.259Z,16.80
2022-08-05T19:11:16.228Z,16.50
2022-08-05T19:14:01.182Z,16.40
2022-08-05T19:16:47.201Z,16.30
2022-08-05T19:19:14.722Z,16.10
2022-08-05T19:21:48.087Z,16.00
2022-08-05T19:24:18.582Z,15.90
2022-08-05T19:27:04.065Z,15.80
2022-08-05T19:29:36.103Z,15.70
2022-08-05T19:32:11.093Z,15.50
2022-08-05T19:34:39.037Z,15.30
2022-08-05T19:37:06.698Z,15.20
2022-08-05T19:39:45.784Z,15.00
2022-08-05T19:42:19.651Z,14.90
2022-08-05T19:45:06.045Z,14.70
2022-08-05T19:47:37.449Z,14.60
2022-08-05T19:50:07.508Z,14.50
2022-08-05T19:52:37.522Z,14.40
2022-08-05T19:55:08.805Z,14.20
2022-08-05T19:58:19.391Z,14.10
2022-08-05T20:00:38.826Z,14.00
2022-08-05T20:03:08.554Z,13.90
2022-08-05T20:05:50.072Z,13.80
2022-08-05T20:08:18.121Z,13.70
2022-08-05T20:10:45.037Z,13.70
2022-08-05T20:13:17.260Z,13.70
2022-08-05T20:15:52.134Z,13.60
2022-08-05T20:18:33.941Z,13.60
2022-08-05T20:21:05.181Z,13.50
2022-08-05T20:23:39.226Z,13.40
2022-08-05T20:26:17.304Z,13.30
2022-08-05T20:28:48.004Z,13.20
2022-08-05T20:31:16.621Z,13.10
2022-08-05T20:33:45.032Z,13.00
2022-08-05T20:36:16.279Z,13.00
2022-08-05T20:38:54.155Z,12.90
2022-08-05T20:41:26.855Z,12.90
2022-08-05T20:43:58.829Z,12.80
2022-08-05T20:46:30.206Z,12.80
2022-08-05T20:48:57.267Z,12.80
2022-08-05T20:51:24.360Z,12.80
2022-08-05T20:53:56.296Z,12.90
2022-08-05T20:56:29.134Z,12.80
2022-08-05T20:59:00.047Z,12.80
2022-08-05T21:01:40.892Z,12.70
2022-08-05T21:04:10.548Z,12.60
2022-08-05T21:06:45.272Z,12.70
2022-08-05T21:09:14.390Z,12.50
2022-08-05T21:12:07.758Z,12.50
2022-08-05T21:14:34.875Z,12.50
2022-08-05T21:17:04.876Z,12.60
2022-08-05T21:19:46.826Z,12.70
2022-08-05T21:22:18.560Z,12.70
2022-08-05T21:24:51.938Z,12.70
2022-08-05T21:27:25.217Z,12.60
2022-08-05T21:29:57.497Z,12.60
2022-08-05T21:32:27.078Z,12.60
2022-08-05T21:35:16.958Z,12.50
2022-08-05T21:37:52.919Z,12.50
2022-08-05T21:40:21.783Z,12.40
2022-08-05T21:42:48.942Z,12.40
2022-08-05T21:45:24.967Z,12.30
2022-08-05T21:48:06.536Z,12.30
2022-08-05T21:50:35.054Z,12.10
2022-08-05T21:53:16.232Z,12.00
2022-08-05T21:56:04.410Z,12.00
2022-08-05T21:58:32.487Z,11.90
2022-08-05T22:00:59.633Z,11.80
2022-08-05T22:03:52.272Z,11.80
2022-08-05T22:06:15.571Z,11.70
2022-08-05T22:08:42.885Z,11.70
2022-08-05T22:11:15.733Z,11.60
2022-08-05T22:14:32.329Z,11.50
2022-08-05T22:16:41.797Z,11.50
2022-08-05T22:19:57.247Z,11.40
2022-08-05T22:22:05.789Z,11.40
2022-08-05T22:24:52.405Z,11.40
2022-08-05T22:28:08.146Z,11.40
2022-08-05T22:30:25.773Z,11.40
2022-08-05T22:33:01.914Z,11.40
2022-08-05T22:35:31.003Z,11.40
2022-08-05T22:38:13.782Z,11.30
2022-08-05T22:40:42.097Z,11.30
2022-08-05T22:43:36.839Z,11.20
2022-08-05T22:46:13.237Z,11.10
2022-08-05T22:48:43.817Z,11.20
2022-08-05T22:51:22.351Z,11.10
2022-08-05T22:53:51.212Z,11.10
2022-08-05T22:56:30.768Z,11.10
2022-08-05T22:59:02.798Z,11.00
2022-08-05T23:02:04.930Z,11.00
2022-08-05T23:04:17.620Z,10.90
2022-08-05T23:06:44.476Z,10.90
2022-08-05T23:09:27.155Z,10.80
2022-08-05T23:11:59.395Z,10.80
2022-08-05T23:14:32.406Z,10.80
2022-08-05T23:17:24.282Z,10.70
2022-08-05T23:20:02.452Z,10.80
2022-08-05T23:22:30.849Z,10.80
2022-08-05T23:24:57.881Z,10.80
2022-08-05T23:27:28.966Z,10.70
2022-08-05T23:29:58.501Z,10.60
2022-08-05T23:32:26.192Z,10.60
2022-08-05T23:34:54.173Z,10.50
2022-08-05T23:37:21.026Z,10.60
2022-08-05T23:39:54.298Z,10.50
2022-08-05T23:42:29.577Z,10.60
2022-08-05T23:44:57.341Z,10.50
2022-08-05T23:47:25.113Z,10.60
2022-08-05T23:49:55.651Z,10.50
2022-08-05T23:52:27.697Z,10.40
2022-08-05T23:55:05.481Z,10.40
2022-08-05T23:57:36.322Z,10.40
